sensor_id;sensor_type;location;lat;lon;timestamp;pressure;altitude;pressure_sealevel;temperature;humidity
76460;BME280;65299;46.084;18.762;2023-02-28T00:00:19;101699.19;;;3.08;73.35
76460;BME280;65299;46.084;18.762;2023-02-28T00:03:19;101706.41;;;3.06;73.73
76460;BME280;65299;46.084;18.762;2023-02-28T00:06:20;101705.72;;;2.52;75.24
76460;BME280;65299;46.084;18.762;2023-02-28T00:09:21;101709.41;;;2.43;75.43
76460;BME280;65299;46.084;18.762;2023-02-28T00:12:21;101707.66;;;2.13;77.19
76460;BME280;65299;46.084;18.762;2023-02-28T00:15:22;101712.22;;;2.42;76.86
76460;BME280;65299;46.084;18.762;2023-02-28T00:18:23;101715.34;;;2.60;76.09
76460;BME280;65299;46.084;18.762;2023-02-28T00:21:23;101704.16;;;2.66;75.17
76460;BME280;65299;46.084;18.762;2023-02-28T00:24:24;101708.31;;;2.38;75.67
76460;BME280;65299;46.084;18.762;2023-02-28T00:27:24;101706.66;;;2.14;76.02
76460;BME280;65299;46.084;18.762;2023-02-28T00:30:25;101712.16;;;2.50;75.18
76460;BME280;65299;46.084;18.762;2023-02-28T00:33:26;101712.91;;;2.59;75.00
76460;BME280;65299;46.084;18.762;2023-02-28T00:36:26;101701.09;;;2.63;74.90
76460;BME280;65299;46.084;18.762;2023-02-28T00:39:27;101714.66;;;2.43;75.44
76460;BME280;65299;46.084;18.762;2023-02-28T00:42:27;101718.75;;;2.46;75.46
76460;BME280;65299;46.084;18.762;2023-02-28T00:45:27;101713.13;;;2.26;75.22
76460;BME280;65299;46.084;18.762;2023-02-28T00:48:28;101724.03;;;2.38;74.76
76460;BME280;65299;46.084;18.762;2023-02-28T00:51:28;101712.50;;;2.24;75.36
76460;BME280;65299;46.084;18.762;2023-02-28T00:54:29;101723.38;;;1.83;75.79
76460;BME280;65299;46.084;18.762;2023-02-28T00:57:29;101721.25;;;1.78;75.57
76460;BME280;65299;46.084;18.762;2023-02-28T01:00:29;101718.34;;;2.04;75.26
76460;BME280;65299;46.084;18.762;2023-02-28T01:03:30;101715.06;;;2.32;74.89
76460;BME280;65299;46.084;18.762;2023-02-28T01:06:30;101708.66;;;2.35;74.79
76460;BME280;65299;46.084;18.762;2023-02-28T01:09:31;101706.50;;;2.61;74.02
76460;BME280;65299;46.084;18.762;2023-02-28T01:12:32;101708.66;;;2.35;75.32
76460;BME280;65299;46.084;18.762;2023-02-28T01:15:33;101717.84;;;1.69;76.28
76460;BME280;65299;46.084;18.762;2023-02-28T01:18:33;101721.78;;;1.65;76.79
76460;BME280;65299;46.084;18.762;2023-02-28T01:21:34;101731.25;;;1.75;75.96
76460;BME280;65299;46.084;18.762;2023-02-28T01:24:37;101719.78;;;1.76;76.17
76460;BME280;65299;46.084;18.762;2023-02-28T01:27:37;101707.88;;;1.73;76.08
76460;BME280;65299;46.084;18.762;2023-02-28T01:30:39;101716.44;;;1.90;75.21
76460;BME280;65299;46.084;18.762;2023-02-28T01:33:39;101714.16;;;1.95;75.25
76460;BME280;65299;46.084;18.762;2023-02-28T01:36:40;101710.63;;;1.33;75.60
76460;BME280;65299;46.084;18.762;2023-02-28T01:39:40;101714.16;;;1.56;76.71
76460;BME280;65299;46.084;18.762;2023-02-28T01:42:41;101714.75;;;1.66;76.46
76460;BME280;65299;46.084;18.762;2023-02-28T01:45:41;101705.94;;;1.59;76.58
76460;BME280;65299;46.084;18.762;2023-02-28T01:49:06;101697.59;;;1.63;75.84
76460;BME280;65299;46.084;18.762;2023-02-28T01:52:10;101692.25;;;1.49;76.38
76460;BME280;65299;46.084;18.762;2023-02-28T01:55:17;101686.66;;;1.60;76.18
76460;BME280;65299;46.084;18.762;2023-02-28T01:58:18;101690.28;;;1.51;76.06
76460;BME280;65299;46.084;18.762;2023-02-28T02:01:21;101695.91;;;1.79;75.98
76460;BME280;65299;46.084;18.762;2023-02-28T02:04:26;101690.16;;;1.83;75.00
76460;BME280;65299;46.084;18.762;2023-02-28T02:07:37;101695.63;;;1.65;75.69
76460;BME280;65299;46.084;18.762;2023-02-28T02:10:44;101689.94;;;1.62;75.83
76460;BME280;65299;46.084;18.762;2023-02-28T02:14:02;101694.63;;;1.75;75.42
76460;BME280;65299;46.084;18.762;2023-02-28T02:21:07;101698.50;;;1.48;75.67
76460;BME280;65299;46.084;18.762;2023-02-28T02:31:26;101704.88;;;1.45;75.50
76460;BME280;65299;46.084;18.762;2023-02-28T02:40:55;101686.16;;;1.18;76.88
76460;BME280;65299;46.084;18.762;2023-02-28T02:44:03;101684.44;;;1.41;76.00
76460;BME280;65299;46.084;18.762;2023-02-28T02:47:10;101689.34;;;1.44;76.00
76460;BME280;65299;46.084;18.762;2023-02-28T02:50:19;101688.88;;;1.40;75.98
76460;BME280;65299;46.084;18.762;2023-02-28T02:53:37;101694.72;;;1.50;75.91
76460;BME280;65299;46.084;18.762;2023-02-28T02:56:44;101691.44;;;1.87;75.34
76460;BME280;65299;46.084;18.762;2023-02-28T02:59:45;101687.59;;;1.67;75.45
76460;BME280;65299;46.084;18.762;2023-02-28T03:02:47;101686.94;;;1.26;75.66
76460;BME280;65299;46.084;18.762;2023-02-28T03:05:50;101678.75;;;1.29;76.12
76460;BME280;65299;46.084;18.762;2023-02-28T03:08:51;101675.75;;;0.94;77.18
76460;BME280;65299;46.084;18.762;2023-02-28T03:11:53;101689.41;;;1.28;75.68
76460;BME280;65299;46.084;18.762;2023-02-28T03:18:24;101706.94;;;1.58;74.66
76460;BME280;65299;46.084;18.762;2023-02-28T03:21:40;101709.19;;;1.30;76.11
76460;BME280;65299;46.084;18.762;2023-02-28T03:28:01;101706.09;;;1.65;75.01
76460;BME280;65299;46.084;18.762;2023-02-28T03:31:28;101698.09;;;1.59;74.63
76460;BME280;65299;46.084;18.762;2023-02-28T03:34:37;101701.50;;;1.67;74.40
76460;BME280;65299;46.084;18.762;2023-02-28T03:37:41;101695.91;;;1.79;73.90
76460;BME280;65299;46.084;18.762;2023-02-28T03:40:50;101701.78;;;1.81;73.99
76460;BME280;65299;46.084;18.762;2023-02-28T03:44:19;101700.97;;;1.80;73.55
76460;BME280;65299;46.084;18.762;2023-02-28T03:47:52;101704.09;;;1.76;73.59
76460;BME280;65299;46.084;18.762;2023-02-28T03:50:55;101704.50;;;1.56;74.00
76460;BME280;65299;46.084;18.762;2023-02-28T03:54:02;101701.81;;;1.73;73.83
76460;BME280;65299;46.084;18.762;2023-02-28T04:00:38;101700.84;;;1.65;73.12
76460;BME280;65299;46.084;18.762;2023-02-28T04:03:40;101700.13;;;1.80;72.91
76460;BME280;65299;46.084;18.762;2023-02-28T04:06:40;101701.44;;;1.45;73.51
76460;BME280;65299;46.084;18.762;2023-02-28T04:09:41;101700.69;;;1.67;74.31
76460;BME280;65299;46.084;18.762;2023-02-28T04:12:41;101696.41;;;1.74;72.76
76460;BME280;65299;46.084;18.762;2023-02-28T04:15:42;101693.16;;;1.72;73.67
76460;BME280;65299;46.084;18.762;2023-02-28T04:18:42;101697.28;;;1.66;73.12
76460;BME280;65299;46.084;18.762;2023-02-28T04:21:48;101685.41;;;1.48;73.57
76460;BME280;65299;46.084;18.762;2023-02-28T04:24:48;101701.09;;;1.48;74.07
76460;BME280;65299;46.084;18.762;2023-02-28T04:27:49;101697.72;;;1.31;74.23
76460;BME280;65299;46.084;18.762;2023-02-28T04:30:57;101699.81;;;1.44;74.02
76460;BME280;65299;46.084;18.762;2023-02-28T04:33:59;101693.69;;;1.05;74.16
76460;BME280;65299;46.084;18.762;2023-02-28T04:36:59;101691.66;;;1.31;74.61
76460;BME280;65299;46.084;18.762;2023-02-28T04:40:01;101702.53;;;1.58;73.57
76460;BME280;65299;46.084;18.762;2023-02-28T04:43:01;101703.28;;;1.28;75.11
76460;BME280;65299;46.084;18.762;2023-02-28T04:46:05;101705.41;;;1.25;74.30
76460;BME280;65299;46.084;18.762;2023-02-28T04:49:05;101705.63;;;1.62;74.22
76460;BME280;65299;46.084;18.762;2023-02-28T04:52:06;101703.78;;;1.71;73.05
76460;BME280;65299;46.084;18.762;2023-02-28T04:55:07;101699.31;;;1.48;73.06
76460;BME280;65299;46.084;18.762;2023-02-28T04:58:08;101702.03;;;1.55;73.53
76460;BME280;65299;46.084;18.762;2023-02-28T05:01:24;101705.31;;;1.57;72.56
76460;BME280;65299;46.084;18.762;2023-02-28T05:04:24;101697.28;;;1.66;73.22
76460;BME280;65299;46.084;18.762;2023-02-28T05:07:25;101691.59;;;1.86;73.12
76460;BME280;65299;46.084;18.762;2023-02-28T05:10:26;101697.28;;;1.66;73.80
76460;BME280;65299;46.084;18.762;2023-02-28T05:13:27;101699.88;;;1.66;72.98
76460;BME280;65299;46.084;18.762;2023-02-28T05:16:28;101700.56;;;1.60;73.12
76460;BME280;65299;46.084;18.762;2023-02-28T05:19:28;101695.72;;;1.80;72.90
76460;BME280;65299;46.084;18.762;2023-02-28T05:22:29;101704.22;;;1.43;73.35
76460;BME280;65299;46.084;18.762;2023-02-28T05:25:29;101705.25;;;1.73;73.37
76460;BME280;65299;46.084;18.762;2023-02-28T05:28:29;101713.91;;;1.27;73.77
76460;BME280;65299;46.084;18.762;2023-02-28T05:31:30;101716.88;;;1.71;73.08
76460;BME280;65299;46.084;18.762;2023-02-28T05:34:31;101732.72;;;1.69;72.98
76460;BME280;65299;46.084;18.762;2023-02-28T05:37:31;101730.81;;;1.55;72.87
76460;BME280;65299;46.084;18.762;2023-02-28T05:40:32;101723.56;;;1.34;73.71
76460;BME280;65299;46.084;18.762;2023-02-28T05:43:32;101727.59;;;1.37;73.83
76460;BME280;65299;46.084;18.762;2023-02-28T05:46:33;101729.72;;;1.41;73.31
76460;BME280;65299;46.084;18.762;2023-02-28T05:49:33;101731.25;;;1.20;74.04
76460;BME280;65299;46.084;18.762;2023-02-28T05:52:34;101736.47;;;1.28;73.71
76460;BME280;65299;46.084;18.762;2023-02-28T05:55:34;101743.06;;;1.62;73.12
76460;BME280;65299;46.084;18.762;2023-02-28T05:58:36;101747.34;;;1.94;72.32
76460;BME280;65299;46.084;18.762;2023-02-28T06:04:39;101755.66;;;1.59;72.93
76460;BME280;65299;46.084;18.762;2023-02-28T06:07:41;101757.63;;;1.57;72.88
76460;BME280;65299;46.084;18.762;2023-02-28T06:10:41;101759.31;;;1.89;72.00
76460;BME280;65299;46.084;18.762;2023-02-28T06:13:42;101764.06;;;1.93;71.32
76460;BME280;65299;46.084;18.762;2023-02-28T06:16:42;101759.91;;;1.60;72.53
76460;BME280;65299;46.084;18.762;2023-02-28T06:19:43;101758.94;;;2.00;71.14
76460;BME280;65299;46.084;18.762;2023-02-28T06:22:43;101766.00;;;1.99;70.67
76460;BME280;65299;46.084;18.762;2023-02-28T06:25:45;101774.06;;;2.20;70.72
76460;BME280;65299;46.084;18.762;2023-02-28T06:28:46;101764.50;;;1.58;71.93
76460;BME280;65299;46.084;18.762;2023-02-28T06:31:47;101776.53;;;2.14;70.90
76460;BME280;65299;46.084;18.762;2023-02-28T06:34:48;101771.63;;;2.19;70.44
76460;BME280;65299;46.084;18.762;2023-02-28T06:37:49;101770.78;;;2.49;70.06
76460;BME280;65299;46.084;18.762;2023-02-28T06:40:56;101780.34;;;2.42;69.53
76460;BME280;65299;46.084;18.762;2023-02-28T06:43:57;101781.63;;;2.15;69.59
76460;BME280;65299;46.084;18.762;2023-02-28T06:46:57;101785.56;;;2.42;68.83
76460;BME280;65299;46.084;18.762;2023-02-28T06:49:58;101784.31;;;2.61;68.95
76460;BME280;65299;46.084;18.762;2023-02-28T06:52:58;101792.97;;;1.53;70.76
76460;BME280;65299;46.084;18.762;2023-02-28T06:55:59;101797.31;;;1.77;71.12
76460;BME280;65299;46.084;18.762;2023-02-28T06:58:59;101792.63;;;2.03;70.74
76460;BME280;65299;46.084;18.762;2023-02-28T07:02:00;101792.44;;;1.65;71.29
76460;BME280;65299;46.084;18.762;2023-02-28T07:05:02;101787.97;;;2.21;69.75
76460;BME280;65299;46.084;18.762;2023-02-28T07:08:03;101788.69;;;2.07;70.21
76460;BME280;65299;46.084;18.762;2023-02-28T07:11:04;101789.84;;;2.04;70.61
76460;BME280;65299;46.084;18.762;2023-02-28T07:14:04;101787.00;;;1.83;71.29
76460;BME280;65299;46.084;18.762;2023-02-28T07:17:07;101776.97;;;1.95;71.14
76460;BME280;65299;46.084;18.762;2023-02-28T07:20:08;101780.47;;;1.79;70.58
76460;BME280;65299;46.084;18.762;2023-02-28T07:23:08;101780.84;;;2.07;70.17
76460;BME280;65299;46.084;18.762;2023-02-28T07:26:13;101779.38;;;2.35;70.06
76460;BME280;65299;46.084;18.762;2023-02-28T07:29:14;101781.13;;;1.81;70.34
76460;BME280;65299;46.084;18.762;2023-02-28T07:32:15;101782.91;;;1.81;71.32
76460;BME280;65299;46.084;18.762;2023-02-28T07:35:16;101785.31;;;2.29;69.21
76460;BME280;65299;46.084;18.762;2023-02-28T07:38:16;101797.34;;;2.46;68.49
76460;BME280;65299;46.084;18.762;2023-02-28T07:41:19;101784.13;;;2.62;68.92
76460;BME280;65299;46.084;18.762;2023-02-28T07:44:20;101787.88;;;1.59;71.36
76460;BME280;65299;46.084;18.762;2023-02-28T07:47:21;101781.91;;;2.20;71.24
76460;BME280;65299;46.084;18.762;2023-02-28T07:50:21;101784.63;;;2.35;69.23
76460;BME280;65299;46.084;18.762;2023-02-28T07:53:22;101784.97;;;2.54;68.80
76460;BME280;65299;46.084;18.762;2023-02-28T07:56:22;101784.72;;;2.72;68.10
76460;BME280;65299;46.084;18.762;2023-02-28T07:59:23;101785.09;;;2.84;69.00
76460;BME280;65299;46.084;18.762;2023-02-28T08:02:24;101793.63;;;2.86;67.80
76460;BME280;65299;46.084;18.762;2023-02-28T08:05:24;101792.56;;;2.72;69.79
76460;BME280;65299;46.084;18.762;2023-02-28T08:08:25;101784.53;;;2.96;68.15
76460;BME280;65299;46.084;18.762;2023-02-28T08:11:31;101786.25;;;2.81;67.11
76460;BME280;65299;46.084;18.762;2023-02-28T08:14:31;101792.69;;;3.01;66.54
76460;BME280;65299;46.084;18.762;2023-02-28T08:17:32;101789.75;;;2.96;67.51
76460;BME280;65299;46.084;18.762;2023-02-28T08:20:32;101782.28;;;3.08;67.02
76460;BME280;65299;46.084;18.762;2023-02-28T08:23:32;101790.72;;;3.18;67.53
76460;BME280;65299;46.084;18.762;2023-02-28T08:26:33;101788.13;;;2.95;67.86
76460;BME280;65299;46.084;18.762;2023-02-28T08:29:36;101787.72;;;2.84;67.53
76460;BME280;65299;46.084;18.762;2023-02-28T08:32:37;101791.63;;;3.10;68.21
76460;BME280;65299;46.084;18.762;2023-02-28T08:35:37;101790.81;;;3.24;66.72
76460;BME280;65299;46.084;18.762;2023-02-28T08:38:38;101793.59;;;3.08;67.12
76460;BME280;65299;46.084;18.762;2023-02-28T08:41:38;101782.50;;;3.21;67.00
76460;BME280;65299;46.084;18.762;2023-02-28T08:44:39;101790.41;;;2.98;67.76
76460;BME280;65299;46.084;18.762;2023-02-28T08:47:41;101788.84;;;3.26;67.31
76460;BME280;65299;46.084;18.762;2023-02-28T08:50:41;101787.50;;;3.30;68.40
76460;BME280;65299;46.084;18.762;2023-02-28T08:53:41;101792.81;;;3.22;68.20
76460;BME280;65299;46.084;18.762;2023-02-28T08:56:42;101789.69;;;3.04;67.12
76460;BME280;65299;46.084;18.762;2023-02-28T08:59:42;101796.41;;;3.44;66.82
76460;BME280;65299;46.084;18.762;2023-02-28T09:02:43;101802.16;;;3.25;67.83
76460;BME280;65299;46.084;18.762;2023-02-28T09:05:58;101790.84;;;3.39;66.40
76460;BME280;65299;46.084;18.762;2023-02-28T09:08:59;101789.22;;;3.53;65.87
76460;BME280;65299;46.084;18.762;2023-02-28T09:11:59;101788.72;;;3.05;68.13
76460;BME280;65299;46.084;18.762;2023-02-28T09:15:00;101788.53;;;3.44;68.35
76460;BME280;65299;46.084;18.762;2023-02-28T09:18:00;101791.97;;;3.88;66.86
76460;BME280;65299;46.084;18.762;2023-02-28T09:21:03;101789.78;;;4.06;65.32
76460;BME280;65299;46.084;18.762;2023-02-28T09:24:04;101784.00;;;3.96;65.18
76460;BME280;65299;46.084;18.762;2023-02-28T09:27:05;101785.50;;;3.32;68.11
76460;BME280;65299;46.084;18.762;2023-02-28T09:30:06;101786.25;;;3.56;67.55
76460;BME280;65299;46.084;18.762;2023-02-28T09:33:06;101778.16;;;4.15;66.51
76460;BME280;65299;46.084;18.762;2023-02-28T09:36:08;101786.97;;;3.93;65.99
76460;BME280;65299;46.084;18.762;2023-02-28T09:39:08;101788.94;;;4.06;66.93
76460;BME280;65299;46.084;18.762;2023-02-28T09:42:25;101794.22;;;4.06;65.55
76460;BME280;65299;46.084;18.762;2023-02-28T09:45:33;101793.03;;;3.65;66.38
76460;BME280;65299;46.084;18.762;2023-02-28T09:48:39;101787.22;;;3.25;68.18
76460;BME280;65299;46.084;18.762;2023-02-28T09:54:44;101798.28;;;3.79;66.64
76460;BME280;65299;46.084;18.762;2023-02-28T09:57:44;101803.56;;;3.94;67.13
76460;BME280;65299;46.084;18.762;2023-02-28T10:00:58;101792.50;;;3.55;69.46
76460;BME280;65299;46.084;18.762;2023-02-28T10:10:50;101799.66;;;3.61;68.96
76460;BME280;65299;46.084;18.762;2023-02-28T10:13:57;101795.56;;;4.02;66.08
76460;BME280;65299;46.084;18.762;2023-02-28T10:17:19;101798.81;;;4.04;66.11
76460;BME280;65299;46.084;18.762;2023-02-28T10:20:23;101798.38;;;4.15;66.18
76460;BME280;65299;46.084;18.762;2023-02-28T10:23:34;101792.03;;;3.36;68.42
76460;BME280;65299;46.084;18.762;2023-02-28T10:26:36;101793.03;;;3.79;65.73
76460;BME280;65299;46.084;18.762;2023-02-28T10:29:38;101799.94;;;3.14;68.36
76460;BME280;65299;46.084;18.762;2023-02-28T10:32:46;101804.72;;;3.48;67.56
76460;BME280;65299;46.084;18.762;2023-02-28T10:35:47;101797.66;;;3.92;64.52
76460;BME280;65299;46.084;18.762;2023-02-28T10:38:49;101797.47;;;3.35;66.90
76460;BME280;65299;46.084;18.762;2023-02-28T10:41:50;101795.22;;;3.76;67.09
76460;BME280;65299;46.084;18.762;2023-02-28T10:51:15;101789.56;;;4.22;66.28
76460;BME280;65299;46.084;18.762;2023-02-28T10:54:23;101775.31;;;3.52;66.94
76460;BME280;65299;46.084;18.762;2023-02-28T10:57:24;101786.25;;;3.99;65.58
76460;BME280;65299;46.084;18.762;2023-02-28T11:00:25;101778.28;;;4.43;65.48
76460;BME280;65299;46.084;18.762;2023-02-28T11:03:35;101780.66;;;4.59;64.64
76460;BME280;65299;46.084;18.762;2023-02-28T11:06:35;101776.34;;;4.16;65.48
76460;BME280;65299;46.084;18.762;2023-02-28T11:09:39;101763.31;;;4.44;65.55
76460;BME280;65299;46.084;18.762;2023-02-28T11:12:40;101760.63;;;4.58;64.21
76460;BME280;65299;46.084;18.762;2023-02-28T11:15:50;101755.69;;;4.70;63.82
76460;BME280;65299;46.084;18.762;2023-02-28T11:18:54;101750.25;;;4.71;62.95
76460;BME280;65299;46.084;18.762;2023-02-28T11:21:57;101757.31;;;4.71;62.70
76460;BME280;65299;46.084;18.762;2023-02-28T11:25:07;101751.84;;;3.94;65.70
76460;BME280;65299;46.084;18.762;2023-02-28T11:28:30;101743.19;;;4.15;65.91
76460;BME280;65299;46.084;18.762;2023-02-28T11:31:31;101736.97;;;4.79;63.04
76460;BME280;65299;46.084;18.762;2023-02-28T11:34:32;101737.34;;;4.55;64.37
76460;BME280;65299;46.084;18.762;2023-02-28T11:37:33;101741.59;;;4.77;63.26
76460;BME280;65299;46.084;18.762;2023-02-28T11:40:48;101743.34;;;4.91;62.94
76460;BME280;65299;46.084;18.762;2023-02-28T11:46:56;101731.63;;;4.94;63.61
76460;BME280;65299;46.084;18.762;2023-02-28T11:50:21;101734.91;;;3.97;66.40
76460;BME280;65299;46.084;18.762;2023-02-28T12:04:25;101719.16;;;4.18;65.11
76460;BME280;65299;46.084;18.762;2023-02-28T12:27:57;101688.78;;;4.51;64.19
76460;BME280;65299;46.084;18.762;2023-02-28T12:31:03;101696.38;;;4.88;64.20
76460;BME280;65299;46.084;18.762;2023-02-28T12:34:11;101704.56;;;4.51;65.19
76460;BME280;65299;46.084;18.762;2023-02-28T12:37:21;101698.19;;;4.39;66.01
76460;BME280;65299;46.084;18.762;2023-02-28T12:40:27;101693.91;;;4.59;65.14
76460;BME280;65299;46.084;18.762;2023-02-28T12:43:35;101686.78;;;4.74;64.99
76460;BME280;65299;46.084;18.762;2023-02-28T12:47:02;101700.47;;;4.97;64.06
76460;BME280;65299;46.084;18.762;2023-02-28T12:50:07;101703.06;;;4.21;65.28
76460;BME280;65299;46.084;18.762;2023-02-28T12:56:48;101706.31;;;4.23;67.02
76460;BME280;65299;46.084;18.762;2023-02-28T12:59:57;101708.63;;;4.54;64.75
76460;BME280;65299;46.084;18.762;2023-02-28T13:06:27;101702.28;;;4.69;64.59
76460;BME280;65299;46.084;18.762;2023-02-28T13:09:32;101707.22;;;4.79;64.23
76460;BME280;65299;46.084;18.762;2023-02-28T13:12:33;101705.03;;;4.40;65.94
76460;BME280;65299;46.084;18.762;2023-02-28T13:15:34;101699.41;;;4.22;66.40
76460;BME280;65299;46.084;18.762;2023-02-28T13:18:45;101695.91;;;4.36;65.56
76460;BME280;65299;46.084;18.762;2023-02-28T13:21:46;101703.28;;;4.68;64.61
76460;BME280;65299;46.084;18.762;2023-02-28T13:24:52;101696.28;;;4.54;65.43
76460;BME280;65299;46.084;18.762;2023-02-28T13:27:53;101699.22;;;4.66;64.08
76460;BME280;65299;46.084;18.762;2023-02-28T13:31:01;101687.53;;;4.96;63.86
76460;BME280;65299;46.084;18.762;2023-02-28T13:34:13;101689.06;;;4.84;64.63
76460;BME280;65299;46.084;18.762;2023-02-28T13:43:59;101684.53;;;5.05;63.80
76460;BME280;65299;46.084;18.762;2023-02-28T13:54:00;101682.63;;;4.44;65.50
76460;BME280;65299;46.084;18.762;2023-02-28T14:03:42;101682.06;;;4.70;64.17
76460;BME280;65299;46.084;18.762;2023-02-28T14:06:50;101673.38;;;4.69;64.51
76460;BME280;65299;46.084;18.762;2023-02-28T14:10:01;101674.53;;;4.88;64.64
76460;BME280;65299;46.084;18.762;2023-02-28T14:16:38;101673.00;;;4.30;65.22
76460;BME280;65299;46.084;18.762;2023-02-28T14:19:44;101667.75;;;4.72;64.38
76460;BME280;65299;46.084;18.762;2023-02-28T14:26:20;101670.69;;;4.63;65.51
76460;BME280;65299;46.084;18.762;2023-02-28T14:32:53;101676.25;;;4.32;67.01
76460;BME280;65299;46.084;18.762;2023-02-28T14:36:23;101665.25;;;4.92;65.13
76460;BME280;65299;46.084;18.762;2023-02-28T14:39:27;101657.84;;;4.74;65.01
76460;BME280;65299;46.084;18.762;2023-02-28T14:42:35;101662.41;;;4.93;64.93
76460;BME280;65299;46.084;18.762;2023-02-28T14:45:38;101665.13;;;5.07;64.72
76460;BME280;65299;46.084;18.762;2023-02-28T14:48:38;101664.97;;;4.80;66.17
76460;BME280;65299;46.084;18.762;2023-02-28T14:51:39;101661.28;;;5.09;63.93
76460;BME280;65299;46.084;18.762;2023-02-28T14:54:40;101662.47;;;5.00;64.43
76460;BME280;65299;46.084;18.762;2023-02-28T14:57:50;101660.31;;;5.10;63.35
76460;BME280;65299;46.084;18.762;2023-02-28T15:00:53;101665.59;;;5.17;62.40
76460;BME280;65299;46.084;18.762;2023-02-28T15:04:25;101662.09;;;5.10;62.93
76460;BME280;65299;46.084;18.762;2023-02-28T15:07:27;101658.63;;;5.02;62.85
76460;BME280;65299;46.084;18.762;2023-02-28T15:10:31;101668.81;;;5.12;62.63
76460;BME280;65299;46.084;18.762;2023-02-28T15:13:49;101661.78;;;4.91;63.31
76460;BME280;65299;46.084;18.762;2023-02-28T15:17:01;101651.31;;;4.70;64.51
76460;BME280;65299;46.084;18.762;2023-02-28T15:20:02;101658.34;;;4.63;63.76
76460;BME280;65299;46.084;18.762;2023-02-28T15:23:03;101656.63;;;4.77;64.79
76460;BME280;65299;46.084;18.762;2023-02-28T15:26:04;101655.91;;;4.62;64.44
76460;BME280;65299;46.084;18.762;2023-02-28T15:29:07;101642.78;;;4.62;64.60
76460;BME280;65299;46.084;18.762;2023-02-28T15:32:23;101646.47;;;5.01;64.00
76460;BME280;65299;46.084;18.762;2023-02-28T15:38:26;101657.31;;;5.20;63.39
76460;BME280;65299;46.084;18.762;2023-02-28T15:41:29;101650.94;;;4.73;63.78
76460;BME280;65299;46.084;18.762;2023-02-28T15:44:33;101655.84;;;4.76;63.62
76460;BME280;65299;46.084;18.762;2023-02-28T15:47:34;101662.94;;;5.10;63.43
76460;BME280;65299;46.084;18.762;2023-02-28T15:50:34;101655.31;;;4.66;64.20
76460;BME280;65299;46.084;18.762;2023-02-28T15:53:48;101663.44;;;4.99;63.72
76460;BME280;65299;46.084;18.762;2023-02-28T15:56:52;101658.34;;;5.19;63.40
76460;BME280;65299;46.084;18.762;2023-02-28T15:59:56;101663.81;;;4.89;63.86
76460;BME280;65299;46.084;18.762;2023-02-28T16:02:57;101661.34;;;4.60;66.60
76460;BME280;65299;46.084;18.762;2023-02-28T16:09:16;101672.56;;;4.96;66.27
76460;BME280;65299;46.084;18.762;2023-02-28T16:12:17;101668.69;;;4.92;66.94
76460;BME280;65299;46.084;18.762;2023-02-28T16:15:26;101668.69;;;4.92;66.48
76460;BME280;65299;46.084;18.762;2023-02-28T16:18:27;101670.88;;;4.89;67.03
76460;BME280;65299;46.084;18.762;2023-02-28T16:21:27;101668.16;;;4.76;66.78
76460;BME280;65299;46.084;18.762;2023-02-28T16:24:28;101671.22;;;4.79;67.97
76460;BME280;65299;46.084;18.762;2023-02-28T16:27:31;101677.44;;;4.99;67.01
76460;BME280;65299;46.084;18.762;2023-02-28T16:30:33;101676.59;;;4.99;66.77
76460;BME280;65299;46.084;18.762;2023-02-28T16:33:33;101678.06;;;4.74;67.48
76460;BME280;65299;46.084;18.762;2023-02-28T16:36:34;101679.63;;;4.96;67.28
76460;BME280;65299;46.084;18.762;2023-02-28T16:39:34;101677.44;;;4.99;66.68
76460;BME280;65299;46.084;18.762;2023-02-28T16:42:37;101681.19;;;5.18;66.75
76460;BME280;65299;46.084;18.762;2023-02-28T16:45:38;101678.81;;;5.23;66.32
76460;BME280;65299;46.084;18.762;2023-02-28T16:48:38;101685.47;;;5.26;66.17
76460;BME280;65299;46.084;18.762;2023-02-28T16:51:40;101682.88;;;4.98;66.27
76460;BME280;65299;46.084;18.762;2023-02-28T16:54:41;101676.91;;;4.83;67.14
76460;BME280;65299;46.084;18.762;2023-02-28T16:57:42;101686.22;;;5.13;66.74
76460;BME280;65299;46.084;18.762;2023-02-28T17:00:43;101689.63;;;5.07;66.91
76460;BME280;65299;46.084;18.762;2023-02-28T17:03:44;101682.28;;;5.30;66.37
76460;BME280;65299;46.084;18.762;2023-02-28T17:06:44;101682.31;;;5.02;65.92
76460;BME280;65299;46.084;18.762;2023-02-28T17:09:45;101678.47;;;4.77;65.71
76460;BME280;65299;46.084;18.762;2023-02-28T17:12:46;101682.72;;;4.51;66.48
76460;BME280;65299;46.084;18.762;2023-02-28T17:15:47;101687.75;;;4.73;66.49
76460;BME280;65299;46.084;18.762;2023-02-28T17:18:47;101689.25;;;4.82;66.31
76460;BME280;65299;46.084;18.762;2023-02-28T17:21:48;101695.16;;;4.91;66.01
76460;BME280;65299;46.084;18.762;2023-02-28T17:24:48;101705.75;;;4.97;66.54
76460;BME280;65299;46.084;18.762;2023-02-28T17:27:49;101690.66;;;4.57;67.18
76460;BME280;65299;46.084;18.762;2023-02-28T17:30:51;101699.84;;;4.68;66.60
76460;BME280;65299;46.084;18.762;2023-02-28T17:33:52;101693.47;;;4.56;67.14
76460;BME280;65299;46.084;18.762;2023-02-28T17:36:54;101704.41;;;4.80;66.72
76460;BME280;65299;46.084;18.762;2023-02-28T17:39:54;101699.19;;;4.87;66.19
76460;BME280;65299;46.084;18.762;2023-02-28T17:42:55;101699.31;;;4.79;66.46
76460;BME280;65299;46.084;18.762;2023-02-28T17:45:56;101700.75;;;4.81;66.56
76460;BME280;65299;46.084;18.762;2023-02-28T17:48:58;101707.03;;;4.80;67.06
76460;BME280;65299;46.084;18.762;2023-02-28T17:51:58;101707.53;;;4.48;67.86
76460;BME280;65299;46.084;18.762;2023-02-28T17:54:59;101703.25;;;4.62;67.58
76460;BME280;65299;46.084;18.762;2023-02-28T17:57:59;101705.13;;;4.47;68.02
76460;BME280;65299;46.084;18.762;2023-02-28T18:00:59;101701.72;;;4.74;67.76
76460;BME280;65299;46.084;18.762;2023-02-28T18:04:00;101698.00;;;4.68;68.02